Nearby METAR Reports

 

KSJC - San Jose, California, USA
Distance from station: NE 14km
Updated: 19/04/2019 13:53
Mostly cloudy
Mostly cloudy
 Wind from calm
Wind: Calm
Temperature: 20°C
Dew Point: 12°C
Humidity: 60%
Barometer: 1013.9 hPa
Clouds: Mostly cloudy
Visibility: 16 km
Cloud details: Partly cloudy 2286 m
Mostly cloudy 3353 m
Mostly cloudy 4877 m
2019/04/19 16:53 KSJC 191653Z 00000KT 10SM SCT075 BKN110 BKN160 20/12 A2994 RMK AO2 SLP137 T02000122
KNUQ - Moffett Nas/Mtn, California, USA
Distance from station: N 14km
Updated: 19/04/2019 13:56
Clear
Clear
 Wind from N
Wind: N 11 km/h
Temperature: 19°C
Dew Point: 13°C
Humidity: 68%
Barometer: 1014.2 hPa
Clouds: Clear
Visibility: 16 km
2019/04/19 16:56 KNUQ 191656Z 35006KT 10SM CLR 19/13 A2995 RMK AO2 SLP143 T01890133 $
 
KPAO - Palo Alto, California, USA
Distance from station: NNW 23km
Updated: 19/04/2019 13:47
Mostly cloudy
Mostly cloudy
 Wind from varies
Wind: varies 7 km/h
Temperature: 17°C
Dew Point: 13°C
Humidity: 77%
Barometer: 1014.6 hPa
Clouds: Mostly cloudy
Visibility: 16 km
Cloud details: Mostly cloudy 3658 m
2019/04/19 16:47 KPAO 191647Z VRB04KT 10SM BKN120 17/13 A2996
KRHV - San Jose/Reid, California, USA
Distance from station: ENE 19km
Updated: 19/04/2019 13:47
Mostly cloudy
Mostly cloudy
 Wind from calm
Wind: Calm
Barometer: 1014.2 hPa
Clouds: Mostly cloudy
Visibility: 16 km
Cloud details: Mostly cloudy 3658 m
2019/04/19 16:47 KRHV 191647Z 00000KT 10SM BKN120 A2995
 
KOAK - Oakland, California, USA
Distance from station: NNW 50km
Updated: 19/04/2019 13:53
Mostly cloudy
Mostly cloudy
 Wind from WNW
Wind: WNW 13 km/h
Temperature: 17°C
Dew Point: 12°C
Humidity: 73%
Barometer: 1014.6 hPa
Clouds: Mostly cloudy
Visibility: 16 km
Cloud details: Mostly cloudy 6096 m
Mostly cloudy 7620 m
2019/04/19 16:53 KOAK 191653Z 30007KT 10SM BKN200 BKN250 17/12 A2996 RMK AO2 SLP145 T01720117 $
KSQL - San Carlos Airpo, California, USA
Distance from station: NW 34km
Updated: 19/04/2019 13:47
Partly cloudy
Partly cloudy
 Wind from calm
Wind: Calm
Temperature: 17°C
Dew Point: 14°C
Humidity: 83%
Barometer: 1014.6 hPa
Clouds: Partly cloudy
Visibility: 16 km
Cloud details: Partly cloudy 3658 m
2019/04/19 16:47 KSQL 191647Z 00000KT 10SM SCT120 17/14 A2996
 
KSFO - San Francisco, California, USA
Distance from station: NW 49km
Updated: 19/04/2019 13:56
Mostly cloudy
Mostly cloudy
 Wind from WNW
Wind: WNW 19 km/h
Temperature: 16°C
Dew Point: 10°C
Humidity: 68%
Barometer: 1014.6 hPa
Clouds: Mostly cloudy
Visibility: 14 km
Cloud details: Few Clouds 274 m
Mostly cloudy 5486 m
2019/04/19 16:56 KSFO 191656Z 30010KT 9SM FEW009 BKN180 16/10 A2996 RMK AO2 SLP144 T01610100
KE16 - San Martin, California, USA
Distance from station: ESE 43km
Updated: 19/04/2019 14:10
Clear
Clear
 Wind from S
Wind: S 6 km/h
Temperature: 17°C
Dew Point: 12°C
Humidity: 73%
Barometer: 1014.9 hPa
Clouds: Clear
Visibility: 16 km
2019/04/19 17:10 KE16 191710Z AUTO 17003KT 10SM CLR 17/12 A2997 RMK AO2
 
KWVI - Watsonville, California, USA
Distance from station: SSE 44km
Updated: 19/04/2019 13:53
Clear
Clear
 Wind from calm
Wind: Calm
Temperature: 16°C
Dew Point: 13°C
Humidity: 83%
Barometer: 1014.9 hPa
Clouds: Clear
Visibility: 16 km
2019/04/19 16:53 KWVI 191653Z AUTO 00000KT 10SM CLR 16/13 A2997 RMK AO2 SLP147 T01560128
KHAF - Half Moon Bay, California, USA
Distance from station: WNW 50km
Updated: 19/04/2019 14:15
Mist, Overcast
Mist, Overcast
 Wind from NW
Wind: NW 13 km/h
Temperature: 10°C
Wind Chill: 8°C
Dew Point: 10°C
Humidity: 100%
Barometer: 1015.6 hPa
Summary: Mist
Clouds: Overcast
Visibility: 1.2 km
Cloud details: Overcast 91 m
2019/04/19 17:15 KHAF 191715Z AUTO 31007KT 3/4SM BR OVC003 10/10 A2999 RMK AO2
 
KHWD - Hayward, California, USA
Distance from station: N 44km
Updated: 19/04/2019 13:54
Clear
Clear
 Wind from W
Wind: W 9 km/h
Temperature: 18°C
Dew Point: 12°C
Humidity: 68%
Barometer: 1014.2 hPa
Clouds: Clear
Visibility: 16 km
2019/04/19 16:54 KHWD 191654Z 28005KT 10SM CLR 18/12 A2995 RMK AO2 SLP150 T01780122
KLVK - Livermore, California, USA
Distance from station: NNE 51km
Updated: 19/04/2019 13:53
Clear
Clear
 Wind from calm
Wind: Calm
Temperature: 18°C
Dew Point: 12°C
Humidity: 68%
Barometer: 1013.9 hPa
Clouds: Clear
Visibility: 16 km
2019/04/19 16:53 KLVK 191653Z 00000KT 10SM CLR 18/12 A2994 RMK AO2 SLP136 T01830122